sensor_id;sensor_type;location;lat;lon;timestamp;noise_LAeq;noise_LA_min;noise_LA_max;noise_LA01;noise_LA95
42701;Laerm;28316;49.504;8.526;2023-04-06T00:01:50;41.73;40.33;42.82;;
42701;Laerm;28316;49.504;8.526;2023-04-06T00:04:16;41.68;40.33;42.76;;
42701;Laerm;28316;49.504;8.526;2023-04-06T00:06:42;41.65;40.03;42.76;;
42701;Laerm;28316;49.504;8.526;2023-04-06T00:09:08;41.27;39.34;42.53;;
42701;Laerm;28316;49.504;8.526;2023-04-06T00:11:34;40.77;39.34;42.03;;
42701;Laerm;28316;49.504;8.526;2023-04-06T00:14:00;40.66;39.11;41.89;;
42701;Laerm;28316;49.504;8.526;2023-04-06T00:16:26;40.53;38.81;41.96;;
42701;Laerm;28316;49.504;8.526;2023-04-06T00:18:52;40.42;38.67;41.82;;
42701;Laerm;28316;49.504;8.526;2023-04-06T00:21:17;40.39;38.67;41.68;;
42701;Laerm;28316;49.504;8.526;2023-04-06T00:23:43;40.46;38.74;41.82;;
42701;Laerm;28316;49.504;8.526;2023-04-06T00:26:09;40.45;38.52;41.75;;
42701;Laerm;28316;49.504;8.526;2023-04-06T00:28:37;40.34;38.21;41.82;;
42701;Laerm;28316;49.504;8.526;2023-04-06T00:31:03;40.35;38.81;41.82;;
42701;Laerm;28316;49.504;8.526;2023-04-06T00:33:29;40.48;38.67;41.89;;
42701;Laerm;28316;49.504;8.526;2023-04-06T00:35:55;40.58;38.81;41.82;;
42701;Laerm;28316;49.504;8.526;2023-04-06T00:38:22;40.90;39.21;42.16;;
42701;Laerm;28316;49.504;8.526;2023-04-06T00:40:47;41.24;39.81;42.41;;
42701;Laerm;28316;49.504;8.526;2023-04-06T00:43:14;41.35;40.13;42.47;;
42701;Laerm;28316;49.504;8.526;2023-04-06T00:45:41;41.40;39.92;42.71;;
42701;Laerm;28316;49.504;8.526;2023-04-06T00:48:08;41.33;39.58;42.59;;
42701;Laerm;28316;49.504;8.526;2023-04-06T00:50:35;40.94;39.46;42.47;;
42701;Laerm;28316;49.504;8.526;2023-04-06T00:53:01;40.76;38.81;41.96;;
42701;Laerm;28316;49.504;8.526;2023-04-06T00:55:28;40.68;38.81;41.96;;
42701;Laerm;28316;49.504;8.526;2023-04-06T00:57:55;40.16;38.37;41.94;;
42701;Laerm;28316;49.504;8.526;2023-04-06T01:00:22;40.30;38.52;41.68;;
42701;Laerm;28316;49.504;8.526;2023-04-06T01:02:48;40.68;38.95;42.29;;
42701;Laerm;28316;49.504;8.526;2023-04-06T01:05:15;40.74;39.08;42.29;;
42701;Laerm;28316;49.504;8.526;2023-04-06T01:07:40;40.65;38.95;42.03;;
42701;Laerm;28316;49.504;8.526;2023-04-06T01:10:07;40.87;39.58;42.35;;
42701;Laerm;28316;49.504;8.526;2023-04-06T01:12:33;40.92;39.34;42.47;;
42701;Laerm;28316;49.504;8.526;2023-04-06T01:14:59;40.91;39.34;42.13;;
42701;Laerm;28316;49.504;8.526;2023-04-06T01:17:25;40.97;38.95;42.16;;
42701;Laerm;28316;49.504;8.526;2023-04-06T01:19:51;40.99;39.70;42.29;;
42701;Laerm;28316;49.504;8.526;2023-04-06T01:22:19;41.01;39.34;42.53;;
42701;Laerm;28316;49.504;8.526;2023-04-06T01:24:45;40.92;39.46;42.16;;
42701;Laerm;28316;49.504;8.526;2023-04-06T01:27:12;40.96;39.34;42.03;;
42701;Laerm;28316;49.504;8.526;2023-04-06T01:29:39;40.95;39.35;42.29;;
42701;Laerm;28316;49.504;8.526;2023-04-06T01:32:07;40.90;39.08;42.16;;
42701;Laerm;28316;49.504;8.526;2023-04-06T01:34:34;40.83;38.95;42.09;;
42701;Laerm;28316;49.504;8.526;2023-04-06T01:36:59;40.84;39.34;42.09;;
42701;Laerm;28316;49.504;8.526;2023-04-06T01:39:26;40.85;39.21;42.41;;
42701;Laerm;28316;49.504;8.526;2023-04-06T01:41:51;40.67;39.21;42.29;;
42701;Laerm;28316;49.504;8.526;2023-04-06T01:44:18;40.54;39.08;41.82;;
42701;Laerm;28316;49.504;8.526;2023-04-06T01:46:44;40.40;38.81;41.75;;
42701;Laerm;28316;49.504;8.526;2023-04-06T01:49:12;40.28;38.52;41.61;;
42701;Laerm;28316;49.504;8.526;2023-04-06T01:51:37;40.36;38.67;41.68;;
42701;Laerm;28316;49.504;8.526;2023-04-06T01:54:04;40.41;38.81;41.82;;
42701;Laerm;28316;49.504;8.526;2023-04-06T01:56:31;40.50;38.81;41.82;;
42701;Laerm;28316;49.504;8.526;2023-04-06T01:58:56;40.29;38.37;41.75;;
42701;Laerm;28316;49.504;8.526;2023-04-06T02:01:22;40.28;38.67;42.03;;
42701;Laerm;28316;49.504;8.526;2023-04-06T02:03:48;40.39;38.67;41.75;;
42701;Laerm;28316;49.504;8.526;2023-04-06T02:06:14;40.29;38.52;41.61;;
42701;Laerm;28316;49.504;8.526;2023-04-06T02:08:40;40.32;38.67;41.82;;
42701;Laerm;28316;49.504;8.526;2023-04-06T02:11:05;40.43;38.95;41.75;;
42701;Laerm;28316;49.504;8.526;2023-04-06T02:13:31;40.41;38.81;41.82;;
42701;Laerm;28316;49.504;8.526;2023-04-06T02:15:57;40.33;38.95;41.68;;
42701;Laerm;28316;49.504;8.526;2023-04-06T02:18:23;40.22;38.05;41.82;;
42701;Laerm;28316;49.504;8.526;2023-04-06T02:20:49;40.11;37.70;41.68;;
42701;Laerm;28316;49.504;8.526;2023-04-06T02:23:15;39.88;37.52;41.46;;
42701;Laerm;28316;49.504;8.526;2023-04-06T02:25:41;39.60;37.52;41.22;;
42701;Laerm;28316;49.504;8.526;2023-04-06T02:28:07;39.62;37.52;41.06;;
42701;Laerm;28316;49.504;8.526;2023-04-06T02:30:33;39.58;37.70;41.30;;
42701;Laerm;28316;49.504;8.526;2023-04-06T02:33:00;39.44;37.32;41.06;;
42701;Laerm;28316;49.504;8.526;2023-04-06T02:35:28;39.48;37.12;41.30;;
42701;Laerm;28316;49.504;8.526;2023-04-06T02:37:54;39.51;37.32;41.22;;
42701;Laerm;28316;49.504;8.526;2023-04-06T02:40:20;39.51;37.12;40.98;;
42701;Laerm;28316;49.504;8.526;2023-04-06T02:42:46;39.60;37.32;41.14;;
42701;Laerm;28316;49.504;8.526;2023-04-06T02:45:12;39.70;37.52;41.30;;
42701;Laerm;28316;49.504;8.526;2023-04-06T02:47:38;39.82;37.88;41.46;;
42701;Laerm;28316;49.504;8.526;2023-04-06T02:50:04;39.80;37.70;41.22;;
42701;Laerm;28316;49.504;8.526;2023-04-06T02:52:31;39.63;37.88;41.22;;
42701;Laerm;28316;49.504;8.526;2023-04-06T02:54:57;39.47;37.35;41.06;;
42701;Laerm;28316;49.504;8.526;2023-04-06T02:57:23;39.36;36.91;41.06;;
42701;Laerm;28316;49.504;8.526;2023-04-06T02:59:48;39.28;37.32;41.06;;
42701;Laerm;28316;49.504;8.526;2023-04-06T03:02:14;39.16;36.91;40.88;;
42701;Laerm;28316;49.504;8.526;2023-04-06T03:04:41;39.14;36.45;41.03;;
42701;Laerm;28316;49.504;8.526;2023-04-06T03:07:07;39.23;36.69;41.38;;
42701;Laerm;28316;49.504;8.526;2023-04-06T03:09:33;39.56;37.32;41.46;;
42701;Laerm;28316;49.504;8.526;2023-04-06T03:11:59;39.75;37.88;41.11;;
42701;Laerm;28316;49.504;8.526;2023-04-06T03:14:27;39.81;38.05;41.46;;
42701;Laerm;28316;49.504;8.526;2023-04-06T03:16:52;39.89;38.02;41.61;;
42701;Laerm;28316;49.504;8.526;2023-04-06T03:19:18;39.79;37.88;41.61;;
42701;Laerm;28316;49.504;8.526;2023-04-06T03:21:44;39.72;37.70;41.38;;
42701;Laerm;28316;49.504;8.526;2023-04-06T03:24:10;39.77;37.88;41.22;;
42701;Laerm;28316;49.504;8.526;2023-04-06T03:26:35;39.70;37.87;41.46;;
42701;Laerm;28316;49.504;8.526;2023-04-06T03:29:01;39.68;37.88;41.30;;
42701;Laerm;28316;49.504;8.526;2023-04-06T03:31:27;39.73;37.70;41.22;;
42701;Laerm;28316;49.504;8.526;2023-04-06T03:33:53;39.75;37.70;41.22;;
42701;Laerm;28316;49.504;8.526;2023-04-06T03:36:18;39.76;37.88;41.53;;
42701;Laerm;28316;49.504;8.526;2023-04-06T03:38:44;39.73;37.88;41.30;;
42701;Laerm;28316;49.504;8.526;2023-04-06T03:41:10;39.64;37.32;41.22;;
42701;Laerm;28316;49.504;8.526;2023-04-06T03:43:36;39.48;37.52;40.98;;
42701;Laerm;28316;49.504;8.526;2023-04-06T03:46:02;39.46;37.52;41.22;;
42701;Laerm;28316;49.504;8.526;2023-04-06T03:48:27;39.57;36.91;41.22;;
42701;Laerm;28316;49.504;8.526;2023-04-06T03:50:53;39.61;37.52;41.30;;
42701;Laerm;28316;49.504;8.526;2023-04-06T03:53:19;39.34;37.12;40.89;;
42701;Laerm;28316;49.504;8.526;2023-04-06T03:55:45;39.17;37.12;40.98;;
42701;Laerm;28316;49.504;8.526;2023-04-06T03:58:11;39.08;36.91;41.06;;
42701;Laerm;28316;49.504;8.526;2023-04-06T04:00:37;39.09;36.45;40.89;;
42701;Laerm;28316;49.504;8.526;2023-04-06T04:03:02;39.09;36.69;40.80;;
42701;Laerm;28316;49.504;8.526;2023-04-06T04:05:28;39.19;37.12;41.06;;
42701;Laerm;28316;49.504;8.526;2023-04-06T04:07:54;39.24;36.69;40.89;;
42701;Laerm;28316;49.504;8.526;2023-04-06T04:10:21;39.22;37.17;40.89;;
42701;Laerm;28316;49.504;8.526;2023-04-06T04:12:46;39.03;36.91;40.89;;
42701;Laerm;28316;49.504;8.526;2023-04-06T04:15:12;38.95;36.20;40.80;;
42701;Laerm;28316;49.504;8.526;2023-04-06T04:17:38;38.95;36.69;40.98;;
42701;Laerm;28316;49.504;8.526;2023-04-06T04:20:05;38.91;36.69;40.80;;
42701;Laerm;28316;49.504;8.526;2023-04-06T04:22:30;38.98;36.91;40.71;;
42701;Laerm;28316;49.504;8.526;2023-04-06T04:24:57;39.17;36.91;41.14;;
42701;Laerm;28316;49.504;8.526;2023-04-06T04:27:22;39.28;37.12;41.22;;
42701;Laerm;28316;49.504;8.526;2023-04-06T04:29:48;39.38;36.91;41.06;;
42701;Laerm;28316;49.504;8.526;2023-04-06T04:32:14;39.44;37.12;41.38;;
42701;Laerm;28316;49.504;8.526;2023-04-06T04:34:40;39.53;37.12;41.22;;
42701;Laerm;28316;49.504;8.526;2023-04-06T04:37:06;39.49;37.12;41.30;;
42701;Laerm;28316;49.504;8.526;2023-04-06T04:39:32;39.46;37.17;41.30;;
42701;Laerm;28316;49.504;8.526;2023-04-06T04:41:58;39.37;37.32;41.06;;
42701;Laerm;28316;49.504;8.526;2023-04-06T04:44:24;39.39;37.12;41.14;;
42701;Laerm;28316;49.504;8.526;2023-04-06T04:46:50;39.42;37.52;41.30;;
42701;Laerm;28316;49.504;8.526;2023-04-06T04:49:15;39.49;36.91;41.22;;
42701;Laerm;28316;49.504;8.526;2023-04-06T04:51:41;39.63;37.52;41.06;;
42701;Laerm;28316;49.504;8.526;2023-04-06T04:54:07;39.73;37.70;41.30;;
42701;Laerm;28316;49.504;8.526;2023-04-06T04:56:33;39.78;38.05;41.53;;
42701;Laerm;28316;49.504;8.526;2023-04-06T04:58:59;39.83;38.05;41.38;;
42701;Laerm;28316;49.504;8.526;2023-04-06T05:01:24;39.78;37.88;41.53;;
42701;Laerm;28316;49.504;8.526;2023-04-06T05:03:50;39.82;38.05;41.61;;
42701;Laerm;28316;49.504;8.526;2023-04-06T05:06:16;39.94;38.05;41.46;;
42701;Laerm;28316;49.504;8.526;2023-04-06T05:08:42;40.06;38.21;41.61;;
42701;Laerm;28316;49.504;8.526;2023-04-06T05:11:09;40.16;38.21;41.75;;
42701;Laerm;28316;49.504;8.526;2023-04-06T05:13:35;40.22;38.37;41.53;;
42701;Laerm;28316;49.504;8.526;2023-04-06T05:16:04;40.22;38.37;41.75;;
42701;Laerm;28316;49.504;8.526;2023-04-06T05:18:30;40.24;38.52;41.75;;
42701;Laerm;28316;49.504;8.526;2023-04-06T05:20:56;40.24;38.21;41.82;;
42701;Laerm;28316;49.504;8.526;2023-04-06T05:23:21;40.26;38.37;41.75;;
42701;Laerm;28316;49.504;8.526;2023-04-06T05:25:47;40.34;38.67;41.75;;
42701;Laerm;28316;49.504;8.526;2023-04-06T05:28:13;40.40;38.67;41.75;;
42701;Laerm;28316;49.504;8.526;2023-04-06T05:30:41;40.46;38.67;41.75;;
42701;Laerm;28316;49.504;8.526;2023-04-06T05:33:07;40.50;38.52;41.89;;
42701;Laerm;28316;49.504;8.526;2023-04-06T05:35:33;40.51;38.95;41.89;;
42701;Laerm;28316;49.504;8.526;2023-04-06T05:37:59;40.48;38.81;41.75;;
42701;Laerm;28316;49.504;8.526;2023-04-06T05:40:24;40.46;38.67;41.82;;
42701;Laerm;28316;49.504;8.526;2023-04-06T05:42:50;40.46;38.81;41.96;;
42701;Laerm;28316;49.504;8.526;2023-04-06T05:45:17;40.50;39.08;42.03;;
42701;Laerm;28316;49.504;8.526;2023-04-06T05:47:44;40.50;38.81;41.96;;
42701;Laerm;28316;49.504;8.526;2023-04-06T05:50:11;40.60;38.67;42.22;;
42701;Laerm;28316;49.504;8.526;2023-04-06T05:52:37;40.72;39.08;41.96;;
42701;Laerm;28316;49.504;8.526;2023-04-06T05:55:04;40.75;39.34;41.96;;
42701;Laerm;28316;49.504;8.526;2023-04-06T05:57:30;40.72;39.21;42.16;;
42701;Laerm;28316;49.504;8.526;2023-04-06T05:59:56;40.65;38.67;42.29;;
42701;Laerm;28316;49.504;8.526;2023-04-06T06:02:22;40.64;39.08;41.96;;
42701;Laerm;28316;49.504;8.526;2023-04-06T06:04:48;40.77;38.81;42.16;;
42701;Laerm;28316;49.504;8.526;2023-04-06T06:07:14;40.91;39.21;42.29;;
42701;Laerm;28316;49.504;8.526;2023-04-06T06:09:40;40.85;39.08;42.16;;
42701;Laerm;28316;49.504;8.526;2023-04-06T06:12:06;40.88;39.34;42.22;;
42701;Laerm;28316;49.504;8.526;2023-04-06T06:14:32;40.95;39.34;42.16;;
42701;Laerm;28316;49.504;8.526;2023-04-06T06:16:58;41.15;39.70;42.41;;
42701;Laerm;28316;49.504;8.526;2023-04-06T06:19:24;41.22;39.70;42.47;;
42701;Laerm;28316;49.504;8.526;2023-04-06T06:21:50;41.18;39.58;42.47;;
42701;Laerm;28316;49.504;8.526;2023-04-06T06:24:16;41.25;39.70;42.41;;
42701;Laerm;28316;49.504;8.526;2023-04-06T06:26:41;41.42;40.03;42.76;;
42701;Laerm;28316;49.504;8.526;2023-04-06T06:29:08;41.55;40.13;42.76;;
42701;Laerm;28316;49.504;8.526;2023-04-06T06:31:34;41.58;40.23;42.65;;
42701;Laerm;28316;49.504;8.526;2023-04-06T06:34:01;41.71;40.33;42.98;;
42701;Laerm;28316;49.504;8.526;2023-04-06T06:36:27;41.80;40.33;42.98;;
42701;Laerm;28316;49.504;8.526;2023-04-06T06:38:53;41.82;40.53;42.98;;
42701;Laerm;28316;49.504;8.526;2023-04-06T06:41:19;41.87;40.43;42.93;;
42701;Laerm;28316;49.504;8.526;2023-04-06T06:43:45;41.91;40.62;42.98;;
42701;Laerm;28316;49.504;8.526;2023-04-06T06:46:11;41.92;40.43;43.04;;
42701;Laerm;28316;49.504;8.526;2023-04-06T06:48:36;41.90;40.62;43.09;;
42701;Laerm;28316;49.504;8.526;2023-04-06T06:51:02;41.90;40.43;42.93;;
42701;Laerm;28316;49.504;8.526;2023-04-06T06:53:28;41.87;40.62;43.14;;
42701;Laerm;28316;49.504;8.526;2023-04-06T06:55:54;41.84;40.43;43.04;;
42701;Laerm;28316;49.504;8.526;2023-04-06T06:58:20;41.88;40.62;42.98;;
42701;Laerm;28316;49.504;8.526;2023-04-06T07:00:46;41.91;40.62;43.04;;
42701;Laerm;28316;49.504;8.526;2023-04-06T07:03:12;41.92;40.53;43.04;;
42701;Laerm;28316;49.504;8.526;2023-04-06T07:05:38;41.90;40.62;44.65;;
42701;Laerm;28316;49.504;8.526;2023-04-06T07:08:04;41.83;40.33;43.86;;
42701;Laerm;28316;49.504;8.526;2023-04-06T07:10:30;41.75;40.13;43.05;;
42701;Laerm;28316;49.504;8.526;2023-04-06T07:12:56;41.77;40.33;43.14;;
42701;Laerm;28316;49.504;8.526;2023-04-06T07:15:22;41.80;40.33;50.40;;
42701;Laerm;28316;49.504;8.526;2023-04-06T07:17:48;41.73;40.33;43.19;;
42701;Laerm;28316;49.504;8.526;2023-04-06T07:20:14;41.64;40.27;43.94;;
42701;Laerm;28316;49.504;8.526;2023-04-06T07:22:42;41.58;39.92;43.24;;
42701;Laerm;28316;49.504;8.526;2023-04-06T07:25:09;41.51;39.70;44.31;;
42701;Laerm;28316;49.504;8.526;2023-04-06T07:27:34;41.54;39.92;44.23;;
42701;Laerm;28316;49.504;8.526;2023-04-06T07:30:00;41.58;40.03;42.93;;
42701;Laerm;28316;49.504;8.526;2023-04-06T07:32:26;41.54;39.92;51.35;;
42701;Laerm;28316;49.504;8.526;2023-04-06T07:34:52;41.50;39.92;42.93;;
42701;Laerm;28316;49.504;8.526;2023-04-06T07:37:18;41.47;39.70;43.29;;
42701;Laerm;28316;49.504;8.526;2023-04-06T07:39:43;41.42;39.70;42.93;;
42701;Laerm;28316;49.504;8.526;2023-04-06T07:42:09;41.42;39.34;54.04;;
42701;Laerm;28316;49.504;8.526;2023-04-06T07:44:35;41.39;39.46;44.94;;
42701;Laerm;28316;49.504;8.526;2023-04-06T07:47:01;41.27;39.46;44.87;;
42701;Laerm;28316;49.504;8.526;2023-04-06T07:49:27;41.25;39.46;43.54;;
42701;Laerm;28316;49.504;8.526;2023-04-06T07:51:53;41.18;39.21;46.05;;
42701;Laerm;28316;49.504;8.526;2023-04-06T07:54:19;41.13;38.95;43.34;;
42701;Laerm;28316;49.504;8.526;2023-04-06T07:56:45;41.11;39.21;43.63;;
42701;Laerm;28316;49.504;8.526;2023-04-06T07:59:10;41.09;39.21;42.59;;
42701;Laerm;28316;49.504;8.526;2023-04-06T08:01:37;41.10;38.81;43.86;;
42701;Laerm;28316;49.504;8.526;2023-04-06T08:04:03;41.04;38.81;42.53;;
42701;Laerm;28316;49.504;8.526;2023-04-06T08:06:28;41.13;38.81;42.53;;
42701;Laerm;28316;49.504;8.526;2023-04-06T08:08:54;41.06;39.21;42.59;;
42701;Laerm;28316;49.504;8.526;2023-04-06T08:11:20;41.03;38.67;43.49;;
42701;Laerm;28316;49.504;8.526;2023-04-06T08:13:46;40.96;38.81;42.76;;
42701;Laerm;28316;49.504;8.526;2023-04-06T08:16:12;40.91;38.81;44.07;;
42701;Laerm;28316;49.504;8.526;2023-04-06T08:18:38;40.89;38.67;43.39;;
42701;Laerm;28316;49.504;8.526;2023-04-06T08:21:04;40.85;38.52;43.81;;
42701;Laerm;28316;49.504;8.526;2023-04-06T08:23:30;40.82;38.52;42.65;;
42701;Laerm;28316;49.504;8.526;2023-04-06T08:25:56;40.88;38.52;43.49;;
42701;Laerm;28316;49.504;8.526;2023-04-06T08:28:22;40.91;38.81;43.68;;
42701;Laerm;28316;49.504;8.526;2023-04-06T08:30:47;40.80;38.81;43.34;;
42701;Laerm;28316;49.504;8.526;2023-04-06T08:33:14;40.83;38.52;42.47;;
42701;Laerm;28316;49.504;8.526;2023-04-06T08:35:41;40.81;38.81;42.53;;
42701;Laerm;28316;49.504;8.526;2023-04-06T08:38:06;40.73;38.52;42.47;;
42701;Laerm;28316;49.504;8.526;2023-04-06T08:40:37;40.71;38.37;42.47;;
42701;Laerm;28316;49.504;8.526;2023-04-06T08:43:05;40.65;38.37;44.62;;
42701;Laerm;28316;49.504;8.526;2023-04-06T08:45:34;40.55;38.05;49.30;;
42701;Laerm;28316;49.504;8.526;2023-04-06T08:48:01;40.34;38.05;43.09;;
42701;Laerm;28316;49.504;8.526;2023-04-06T08:50:29;40.82;36.69;66.95;;
42701;Laerm;28316;49.504;8.526;2023-04-06T08:52:56;40.41;37.88;44.03;;
42701;Laerm;28316;49.504;8.526;2023-04-06T08:55:22;40.32;37.88;45.07;;
42701;Laerm;28316;49.504;8.526;2023-04-06T08:57:49;40.24;37.52;43.63;;
42701;Laerm;28316;49.504;8.526;2023-04-06T09:00:15;40.18;37.52;42.03;;
42701;Laerm;28316;49.504;8.526;2023-04-06T09:02:46;40.22;37.52;43.86;;
42701;Laerm;28316;49.504;8.526;2023-04-06T09:05:13;40.68;37.52;54.28;;
42701;Laerm;28316;49.504;8.526;2023-04-06T09:07:39;40.17;37.32;47.16;;
42701;Laerm;28316;49.504;8.526;2023-04-06T09:10:06;40.04;37.12;43.39;;
42701;Laerm;28316;49.504;8.526;2023-04-06T09:12:32;39.98;37.52;41.82;;
42701;Laerm;28316;49.504;8.526;2023-04-06T09:14:59;40.01;37.12;45.23;;
42701;Laerm;28316;49.504;8.526;2023-04-06T09:17:31;39.98;37.12;43.34;;
42701;Laerm;28316;49.504;8.526;2023-04-06T09:20:00;40.20;37.52;50.01;;
42701;Laerm;28316;49.504;8.526;2023-04-06T09:22:36;39.87;36.69;45.54;;
42701;Laerm;28316;49.504;8.526;2023-04-06T09:25:03;39.76;36.20;41.68;;
42701;Laerm;28316;49.504;8.526;2023-04-06T09:27:34;39.79;36.91;42.59;;
42701;Laerm;28316;49.504;8.526;2023-04-06T09:30:11;39.78;37.32;41.68;;
42701;Laerm;28316;49.504;8.526;2023-04-06T09:32:53;39.73;36.69;42.82;;
42701;Laerm;28316;49.504;8.526;2023-04-06T09:35:21;39.73;37.12;41.68;;
42701;Laerm;28316;49.504;8.526;2023-04-06T09:37:51;39.66;36.69;41.75;;
42701;Laerm;28316;49.504;8.526;2023-04-06T09:40:18;39.64;36.45;41.68;;
42701;Laerm;28316;49.504;8.526;2023-04-06T09:42:49;39.70;36.45;46.66;;
42701;Laerm;28316;49.504;8.526;2023-04-06T09:45:18;39.49;36.45;42.74;;
42701;Laerm;28316;49.504;8.526;2023-04-06T09:47:45;39.63;36.20;47.84;;
42701;Laerm;28316;49.504;8.526;2023-04-06T09:50:13;39.41;35.94;42.47;;
42701;Laerm;28316;49.504;8.526;2023-04-06T09:52:52;39.39;36.45;41.96;;
42701;Laerm;28316;49.504;8.526;2023-04-06T09:55:41;39.46;35.94;42.71;;
42701;Laerm;28316;49.504;8.526;2023-04-06T09:58:10;39.46;36.45;42.47;;
42701;Laerm;28316;49.504;8.526;2023-04-06T10:01:04;39.94;33.90;68.03;;
42701;Laerm;28316;49.504;8.526;2023-04-06T10:03:54;39.34;35.94;45.30;;
42701;Laerm;28316;49.504;8.526;2023-04-06T10:06:23;39.21;35.94;44.51;;
42701;Laerm;28316;49.504;8.526;2023-04-06T10:08:55;39.13;36.20;41.82;;
42701;Laerm;28316;49.504;8.526;2023-04-06T10:11:22;39.14;35.66;41.30;;
42701;Laerm;28316;49.504;8.526;2023-04-06T10:13:48;39.22;35.66;44.76;;
42701;Laerm;28316;49.504;8.526;2023-04-06T10:16:15;39.04;35.36;43.72;;
42701;Laerm;28316;49.504;8.526;2023-04-06T10:18:47;39.02;35.36;41.61;;
42701;Laerm;28316;49.504;8.526;2023-04-06T10:21:22;38.98;35.36;43.39;;
42701;Laerm;28316;49.504;8.526;2023-04-06T10:23:54;38.99;35.66;41.96;;
42701;Laerm;28316;49.504;8.526;2023-04-06T10:26:23;38.95;35.04;42.35;;
42701;Laerm;28316;49.504;8.526;2023-04-06T10:28:50;38.96;35.66;41.14;;
42701;Laerm;28316;49.504;8.526;2023-04-06T10:31:27;38.99;35.36;43.68;;
42701;Laerm;28316;49.504;8.526;2023-04-06T10:33:58;38.95;35.66;43.04;;
42701;Laerm;28316;49.504;8.526;2023-04-06T10:36:33;39.01;35.36;45.17;;
42701;Laerm;28316;49.504;8.526;2023-04-06T10:39:02;39.08;35.01;50.92;;
42701;Laerm;28316;49.504;8.526;2023-04-06T10:41:45;38.92;35.04;44.90;;
42701;Laerm;28316;49.504;8.526;2023-04-06T10:44:24;39.62;34.69;57.19;;
42701;Laerm;28316;49.504;8.526;2023-04-06T10:46:55;39.03;35.04;45.75;;
42701;Laerm;28316;49.504;8.526;2023-04-06T10:49:20;38.83;35.04;47.40;;
42701;Laerm;28316;49.504;8.526;2023-04-06T10:51:53;38.73;34.69;44.11;;
42701;Laerm;28316;49.504;8.526;2023-04-06T10:54:21;39.01;35.66;53.42;;
42701;Laerm;28316;49.504;8.526;2023-04-06T10:56:48;41.25;34.69;73.79;;
42701;Laerm;28316;49.504;8.526;2023-04-06T10:59:21;38.68;35.04;42.71;;
42701;Laerm;28316;49.504;8.526;2023-04-06T11:01:48;38.72;34.31;43.81;;
42701;Laerm;28316;49.504;8.526;2023-04-06T11:04:19;38.68;34.69;42.29;;
42701;Laerm;28316;49.504;8.526;2023-04-06T11:06:49;38.73;34.69;46.64;;
42701;Laerm;28316;49.504;8.526;2023-04-06T11:09:26;38.78;34.69;47.24;;
42701;Laerm;28316;49.504;8.526;2023-04-06T11:11:53;39.75;35.04;55.06;;
42701;Laerm;28316;49.504;8.526;2023-04-06T11:14:19;39.09;35.04;47.98;;
42701;Laerm;28316;49.504;8.526;2023-04-06T11:16:47;38.76;34.69;48.81;;
42701;Laerm;28316;49.504;8.526;2023-04-06T11:19:17;39.12;35.36;48.18;;
42701;Laerm;28316;49.504;8.526;2023-04-06T11:21:45;38.88;33.44;51.03;;
42701;Laerm;28316;49.504;8.526;2023-04-06T11:24:25;38.80;34.31;49.62;;
42701;Laerm;28316;49.504;8.526;2023-04-06T11:26:55;38.60;34.69;48.54;;
42701;Laerm;28316;49.504;8.526;2023-04-06T11:29:31;39.08;33.90;58.19;;
42701;Laerm;28316;49.504;8.526;2023-04-06T11:32:05;38.70;34.31;44.19;;
42701;Laerm;28316;49.504;8.526;2023-04-06T11:34:40;38.76;31.68;49.32;;
42701;Laerm;28316;49.504;8.526;2023-04-06T11:37:11;39.31;34.31;52.17;;
42701;Laerm;28316;49.504;8.526;2023-04-06T11:39:52;38.62;34.31;49.94;;
42701;Laerm;28316;49.504;8.526;2023-04-06T11:42:26;39.34;35.04;57.94;;
42701;Laerm;28316;49.504;8.526;2023-04-06T11:44:55;40.85;34.69;55.22;;
42701;Laerm;28316;49.504;8.526;2023-04-06T11:47:33;38.70;33.90;44.73;;
42701;Laerm;28316;49.504;8.526;2023-04-06T11:50:08;38.79;35.04;47.81;;
42701;Laerm;28316;49.504;8.526;2023-04-06T11:52:34;39.21;34.31;53.31;;
42701;Laerm;28316;49.504;8.526;2023-04-06T11:55:14;38.88;35.01;45.36;;
42701;Laerm;28316;49.504;8.526;2023-04-06T11:57:42;38.71;34.69;45.14;;
42701;Laerm;28316;49.504;8.526;2023-04-06T12:00:09;38.83;33.44;50.04;;
42701;Laerm;28316;49.504;8.526;2023-04-06T12:02:39;38.55;34.31;47.14;;
42701;Laerm;28316;49.504;8.526;2023-04-06T12:05:05;38.42;34.69;46.35;;
42701;Laerm;28316;49.504;8.526;2023-04-06T12:07:33;38.36;33.44;43.99;;
42701;Laerm;28316;49.504;8.526;2023-04-06T12:10:00;39.60;35.04;56.33;;
42701;Laerm;28316;49.504;8.526;2023-04-06T12:12:26;38.94;33.90;46.38;;
42701;Laerm;28316;49.504;8.526;2023-04-06T12:14:52;40.27;34.69;55.22;;
42701;Laerm;28316;49.504;8.526;2023-04-06T12:17:19;38.78;32.93;45.51;;
42701;Laerm;28316;49.504;8.526;2023-04-06T12:19:46;38.36;34.31;43.90;;
42701;Laerm;28316;49.504;8.526;2023-04-06T12:22:12;38.36;34.31;42.47;;
42701;Laerm;28316;49.504;8.526;2023-04-06T12:24:37;38.64;34.69;44.83;;
42701;Laerm;28316;49.504;8.526;2023-04-06T12:27:03;38.76;32.00;47.20;;
42701;Laerm;28316;49.504;8.526;2023-04-06T12:29:29;38.52;34.31;46.05;;
42701;Laerm;28316;49.504;8.526;2023-04-06T12:31:55;39.65;34.31;56.55;;
42701;Laerm;28316;49.504;8.526;2023-04-06T12:34:21;38.88;34.69;49.23;;
42701;Laerm;28316;49.504;8.526;2023-04-06T12:36:47;39.29;33.90;53.62;;
42701;Laerm;28316;49.504;8.526;2023-04-06T12:39:13;38.62;34.31;45.39;;
42701;Laerm;28316;49.504;8.526;2023-04-06T12:41:39;39.53;33.90;54.59;;
42701;Laerm;28316;49.504;8.526;2023-04-06T12:44:07;38.54;35.04;44.07;;
42701;Laerm;28316;49.504;8.526;2023-04-06T12:46:33;38.63;34.31;44.97;;
42701;Laerm;28316;49.504;8.526;2023-04-06T12:48:59;39.06;34.31;53.72;;
42701;Laerm;28316;49.504;8.526;2023-04-06T12:51:27;38.73;34.69;51.08;;
42701;Laerm;28316;49.504;8.526;2023-04-06T12:53:53;38.37;33.90;42.47;;
42701;Laerm;28316;49.504;8.526;2023-04-06T12:56:19;38.81;33.90;45.60;;
42701;Laerm;28316;49.504;8.526;2023-04-06T12:58:48;38.52;34.69;42.82;;
42701;Laerm;28316;49.504;8.526;2023-04-06T13:01:14;39.44;34.69;53.89;;
42701;Laerm;28316;49.504;8.526;2023-04-06T13:03:43;38.48;34.31;44.11;;
42701;Laerm;28316;49.504;8.526;2023-04-06T13:06:09;38.91;34.31;49.40;;
42701;Laerm;28316;49.504;8.526;2023-04-06T13:08:36;38.36;33.44;44.83;;
42701;Laerm;28316;49.504;8.526;2023-04-06T13:11:05;38.52;34.69;44.31;;
42701;Laerm;28316;49.504;8.526;2023-04-06T13:13:33;38.54;34.31;50.85;;
42701;Laerm;28316;49.504;8.526;2023-04-06T13:16:02;38.29;34.31;47.38;;
42701;Laerm;28316;49.504;8.526;2023-04-06T13:18:30;39.11;34.69;56.44;;
42701;Laerm;28316;49.504;8.526;2023-04-06T13:20:57;38.91;33.90;49.97;;
42701;Laerm;28316;49.504;8.526;2023-04-06T13:23:23;38.39;34.31;44.76;;
42701;Laerm;28316;49.504;8.526;2023-04-06T13:26:01;38.83;35.04;46.95;;
42701;Laerm;28316;49.504;8.526;2023-04-06T13:28:29;38.74;34.31;46.97;;
42701;Laerm;28316;49.504;8.526;2023-04-06T13:30:58;38.21;33.90;41.89;;
42701;Laerm;28316;49.504;8.526;2023-04-06T13:33:24;38.89;34.69;49.71;;
42701;Laerm;28316;49.504;8.526;2023-04-06T13:35:50;38.26;33.44;41.96;;
42701;Laerm;28316;49.504;8.526;2023-04-06T13:38:16;39.35;34.69;55.03;;
42701;Laerm;28316;49.504;8.526;2023-04-06T13:40:42;38.52;33.90;47.00;;
42701;Laerm;28316;49.504;8.526;2023-04-06T13:43:08;39.16;33.90;56.92;;
42701;Laerm;28316;49.504;8.526;2023-04-06T13:45:34;38.94;33.90;51.86;;